sensor_id;sensor_type;location;lat;lon;timestamp;pressure;altitude;pressure_sealevel;temperature;humidity
5988;BME280;3021;51.000;6.980;2023-02-05T00:01:05;67081.25;;;7.01;100.00
5988;BME280;3021;51.000;6.980;2023-02-05T00:03:31;67078.53;;;7.01;100.00
5988;BME280;3021;51.000;6.980;2023-02-05T00:05:56;67075.22;;;7.00;100.00
5988;BME280;3021;51.000;6.980;2023-02-05T00:08:21;67077.38;;;7.00;100.00
5988;BME280;3021;51.000;6.980;2023-02-05T00:10:51;67063.69;;;6.90;100.00
5988;BME280;3021;51.000;6.980;2023-02-05T00:13:16;67069.75;;;6.90;100.00
5988;BME280;3021;51.000;6.980;2023-02-05T00:15:42;67071.63;;;6.95;100.00
5988;BME280;3021;51.000;6.980;2023-02-05T00:18:07;67066.41;;;6.90;100.00
5988;BME280;3021;51.000;6.980;2023-02-05T00:20:32;67063.69;;;6.90;100.00
5988;BME280;3021;51.000;6.980;2023-02-05T00:22:58;67068.31;;;6.94;100.00
5988;BME280;3021;51.000;6.980;2023-02-05T00:25:24;67073.06;;;7.01;100.00
5988;BME280;3021;51.000;6.980;2023-02-05T00:27:49;67060.84;;;6.87;100.00
5988;BME280;3021;51.000;6.980;2023-02-05T00:30:14;67060.69;;;6.85;100.00
5988;BME280;3021;51.000;6.980;2023-02-05T00:32:40;67057.22;;;6.82;100.00
5988;BME280;3021;51.000;6.980;2023-02-05T00:35:05;67056.22;;;6.83;100.00
5988;BME280;3021;51.000;6.980;2023-02-05T00:37:31;67055.63;;;6.83;100.00
5988;BME280;3021;51.000;6.980;2023-02-05T00:39:56;67053.19;;;6.78;100.00
5988;BME280;3021;51.000;6.980;2023-02-05T00:42:21;67041.22;;;6.70;100.00
5988;BME280;3021;51.000;6.980;2023-02-05T00:44:47;67042.22;;;6.68;100.00
5988;BME280;3021;51.000;6.980;2023-02-05T00:47:12;67043.56;;;6.72;100.00
5988;BME280;3021;51.000;6.980;2023-02-05T00:49:37;67050.44;;;6.78;100.00
5988;BME280;3021;51.000;6.980;2023-02-05T00:52:03;67056.06;;;6.81;100.00
5988;BME280;3021;51.000;6.980;2023-02-05T00:54:29;67061.09;;;6.83;100.00
5988;BME280;3021;51.000;6.980;2023-02-05T00:56:54;67056.06;;;6.81;100.00
5988;BME280;3021;51.000;6.980;2023-02-05T00:59:19;67055.50;;;6.80;100.00
5988;BME280;3021;51.000;6.980;2023-02-05T01:01:45;67053.34;;;6.81;100.00
5988;BME280;3021;51.000;6.980;2023-02-05T01:04:10;67055.91;;;6.78;100.00
5988;BME280;3021;51.000;6.980;2023-02-05T01:06:35;67046.28;;;6.72;100.00
5988;BME280;3021;51.000;6.980;2023-02-05T01:09:01;67038.22;;;6.65;100.00
5988;BME280;3021;51.000;6.980;2023-02-05T01:11:26;67033.75;;;6.63;100.00
5988;BME280;3021;51.000;6.980;2023-02-05T01:13:52;67029.56;;;6.57;100.00
5988;BME280;3021;51.000;6.980;2023-02-05T01:16:17;67029.56;;;6.57;100.00
5988;BME280;3021;51.000;6.980;2023-02-05T01:18:42;67023.81;;;6.52;100.00
5988;BME280;3021;51.000;6.980;2023-02-05T01:21:08;67024.38;;;6.52;100.00
5988;BME280;3021;51.000;6.980;2023-02-05T01:23:33;67012.59;;;6.47;100.00
5988;BME280;3021;51.000;6.980;2023-02-05T01:25:58;67016.88;;;6.46;100.00
5988;BME280;3021;51.000;6.980;2023-02-05T01:28:24;67011.72;;;6.41;100.00
5988;BME280;3021;51.000;6.980;2023-02-05T01:30:50;67013.44;;;6.43;100.00
5988;BME280;3021;51.000;6.980;2023-02-05T01:33:16;67014.75;;;6.46;100.00
5988;BME280;3021;51.000;6.980;2023-02-05T01:35:41;67010.88;;;6.45;100.00
5988;BME280;3021;51.000;6.980;2023-02-05T01:38:09;67020.94;;;6.49;100.00
5988;BME280;3021;51.000;6.980;2023-02-05T01:40:34;67027.28;;;6.55;100.00
5988;BME280;3021;51.000;6.980;2023-02-05T01:43:00;67029.72;;;6.60;100.00
5988;BME280;3021;51.000;6.980;2023-02-05T01:45:34;67026.84;;;6.57;100.00
5988;BME280;3021;51.000;6.980;2023-02-05T01:48:04;67030.16;;;6.57;100.00
5988;BME280;3021;51.000;6.980;2023-02-05T01:53:18;67022.22;;;6.53;100.00
5988;BME280;3021;51.000;6.980;2023-02-05T01:56:07;67026.09;;;6.54;100.00
5988;BME280;3021;51.000;6.980;2023-02-05T02:01:32;67025.13;;;6.55;100.00
5988;BME280;3021;51.000;6.980;2023-02-05T02:04:00;67030.28;;;6.60;100.00
5988;BME280;3021;51.000;6.980;2023-02-05T02:06:29;67022.66;;;6.51;100.00
5988;BME280;3021;51.000;6.980;2023-02-05T02:08:56;67019.78;;;6.48;100.00
5988;BME280;3021;51.000;6.980;2023-02-05T02:11:22;67013.59;;;6.45;100.00
5988;BME280;3021;51.000;6.980;2023-02-05T02:13:52;67011.00;;;6.38;100.00
5988;BME280;3021;51.000;6.980;2023-02-05T02:16:19;67001.50;;;6.34;100.00
5988;BME280;3021;51.000;6.980;2023-02-05T02:18:45;66992.16;;;6.23;100.00
5988;BME280;3021;51.000;6.980;2023-02-05T02:29:38;66973.16;;;6.07;100.00
5988;BME280;3021;51.000;6.980;2023-02-05T02:32:20;66973.31;;;6.09;100.00
5988;BME280;3021;51.000;6.980;2023-02-05T02:34:55;66981.78;;;6.14;100.00
5988;BME280;3021;51.000;6.980;2023-02-05T02:37:36;66990.25;;;6.19;100.00
5988;BME280;3021;51.000;6.980;2023-02-05T02:40:11;66987.09;;;6.21;100.00
5988;BME280;3021;51.000;6.980;2023-02-05T02:42:45;66988.25;;;6.22;100.00
5988;BME280;3021;51.000;6.980;2023-02-05T02:45:12;66992.88;;;6.27;100.00
5988;BME280;3021;51.000;6.980;2023-02-05T02:47:47;67004.81;;;6.35;100.00
5988;BME280;3021;51.000;6.980;2023-02-05T02:50:22;66997.06;;;6.33;100.00
5988;BME280;3021;51.000;6.980;2023-02-05T02:52:51;66999.22;;;6.32;100.00
5988;BME280;3021;51.000;6.980;2023-02-05T02:55:20;67002.50;;;6.33;100.00
5988;BME280;3021;51.000;6.980;2023-02-05T02:57:47;67011.16;;;6.40;100.00
5988;BME280;3021;51.000;6.980;2023-02-05T03:00:19;67013.88;;;6.40;100.00
5988;BME280;3021;51.000;6.980;2023-02-05T03:02:47;67014.03;;;6.43;100.00
5988;BME280;3021;51.000;6.980;2023-02-05T03:05:17;67018.22;;;6.49;100.00
5988;BME280;3021;51.000;6.980;2023-02-05T03:07:50;67026.69;;;6.54;100.00
5988;BME280;3021;51.000;6.980;2023-02-05T03:12:55;67030.72;;;6.58;100.00
5988;BME280;3021;51.000;6.980;2023-02-05T03:15:20;67030.88;;;6.61;100.00
5988;BME280;3021;51.000;6.980;2023-02-05T03:17:46;67032.03;;;6.62;100.00
5988;BME280;3021;51.000;6.980;2023-02-05T03:20:20;67023.38;;;6.54;100.00
5988;BME280;3021;51.000;6.980;2023-02-05T03:22:46;67029.56;;;6.57;100.00
5988;BME280;3021;51.000;6.980;2023-02-05T03:25:12;67035.91;;;6.63;100.00
5988;BME280;3021;51.000;6.980;2023-02-05T03:27:37;67038.38;;;6.67;100.00
5988;BME280;3021;51.000;6.980;2023-02-05T03:30:04;67039.34;;;6.66;100.00
5988;BME280;3021;51.000;6.980;2023-02-05T03:32:35;67042.38;;;6.71;100.00
5988;BME280;3021;51.000;6.980;2023-02-05T03:41:19;67034.91;;;6.64;100.00
5988;BME280;3021;51.000;6.980;2023-02-05T03:43:53;67031.03;;;6.63;100.00
5988;BME280;3021;51.000;6.980;2023-02-05T03:49:08;67029.72;;;6.60;100.00
5988;BME280;3021;51.000;6.980;2023-02-05T03:51:50;67026.84;;;6.57;100.00
5988;BME280;3021;51.000;6.980;2023-02-05T03:54:42;67026.28;;;6.56;100.00
5988;BME280;3021;51.000;6.980;2023-02-05T03:57:23;67020.50;;;6.51;100.00
5988;BME280;3021;51.000;6.980;2023-02-05T03:59:51;67014.16;;;6.46;100.00
5988;BME280;3021;51.000;6.980;2023-02-05T04:02:18;67015.16;;;6.44;100.00
5988;BME280;3021;51.000;6.980;2023-02-05T04:04:44;67009.41;;;6.39;100.00
5988;BME280;3021;51.000;6.980;2023-02-05T04:07:10;67005.53;;;6.38;100.00
5988;BME280;3021;51.000;6.980;2023-02-05T04:09:35;67014.59;;;6.44;100.00
5988;BME280;3021;51.000;6.980;2023-02-05T04:12:01;67010.56;;;6.40;100.00
5988;BME280;3021;51.000;6.980;2023-02-05T04:14:26;67008.41;;;6.40;100.00
5988;BME280;3021;51.000;6.980;2023-02-05T04:16:51;67012.28;;;6.42;100.00
5988;BME280;3021;51.000;6.980;2023-02-05T04:19:18;67013.03;;;6.45;100.00
5988;BME280;3021;51.000;6.980;2023-02-05T04:21:43;67022.22;;;6.53;100.00
5988;BME280;3021;51.000;6.980;2023-02-05T04:24:09;67012.44;;;6.44;100.00
5988;BME280;3021;51.000;6.980;2023-02-05T04:26:34;67016.88;;;6.46;100.00
5988;BME280;3021;51.000;6.980;2023-02-05T04:29:00;67018.63;;;6.47;100.00
5988;BME280;3021;51.000;6.980;2023-02-05T04:31:25;67018.78;;;6.50;100.00
5988;BME280;3021;51.000;6.980;2023-02-05T04:33:50;67029.16;;;6.59;100.00
5988;BME280;3021;51.000;6.980;2023-02-05T04:36:16;67036.63;;;6.66;100.00
5988;BME280;3021;51.000;6.980;2023-02-05T04:38:41;67040.66;;;6.69;100.00
5988;BME280;3021;51.000;6.980;2023-02-05T04:41:07;67041.09;;;6.67;100.00
5988;BME280;3021;51.000;6.980;2023-02-05T04:43:32;67035.91;;;6.63;100.00
5988;BME280;3021;51.000;6.980;2023-02-05T04:45:57;67039.94;;;6.66;100.00
5988;BME280;3021;51.000;6.980;2023-02-05T04:48:23;67031.44;;;6.61;100.00
5988;BME280;3021;51.000;6.980;2023-02-05T04:50:48;67030.72;;;6.58;100.00
5988;BME280;3021;51.000;6.980;2023-02-05T04:53:13;67033.16;;;6.63;100.00
5988;BME280;3021;51.000;6.980;2023-02-05T04:55:39;67041.09;;;6.67;100.00
5988;BME280;3021;51.000;6.980;2023-02-05T04:58:04;67047.56;;;6.75;100.00
5988;BME280;3021;51.000;6.980;2023-02-05T05:00:30;67047.41;;;6.73;100.00
5988;BME280;3021;51.000;6.980;2023-02-05T05:02:56;67049.72;;;6.75;100.00
5988;BME280;3021;51.000;6.980;2023-02-05T05:05:21;67042.22;;;6.68;100.00
5988;BME280;3021;51.000;6.980;2023-02-05T05:07:47;67034.34;;;6.64;100.00
5988;BME280;3021;51.000;6.980;2023-02-05T05:10:12;67034.00;;;6.58;100.00
5988;BME280;3021;51.000;6.980;2023-02-05T05:12:38;67026.69;;;6.54;100.00
5988;BME280;3021;51.000;6.980;2023-02-05T05:15:04;67030.28;;;6.60;100.00
5988;BME280;3021;51.000;6.980;2023-02-05T05:17:30;67041.66;;;6.68;100.00
5988;BME280;3021;51.000;6.980;2023-02-05T05:19:56;67043.38;;;6.69;100.00
5988;BME280;3021;51.000;6.980;2023-02-05T05:22:22;67047.56;;;6.75;100.00
5988;BME280;3021;51.000;6.980;2023-02-05T05:24:47;67050.44;;;6.78;100.00
5988;BME280;3021;51.000;6.980;2023-02-05T05:27:12;67062.97;;;6.87;100.00
5988;BME280;3021;51.000;6.980;2023-02-05T05:29:38;67070.03;;;6.96;100.00
5988;BME280;3021;51.000;6.980;2023-02-05T05:32:03;67065.56;;;6.94;100.00
5988;BME280;3021;51.000;6.980;2023-02-05T05:34:29;67066.00;;;6.92;100.00
5988;BME280;3021;51.000;6.980;2023-02-05T05:36:54;67076.53;;;7.04;100.00
5988;BME280;3021;51.000;6.980;2023-02-05T05:39:20;67082.53;;;7.04;100.00
5988;BME280;3021;51.000;6.980;2023-02-05T05:42:04;67072.19;;;6.95;100.00
5988;BME280;3021;51.000;6.980;2023-02-05T05:44:48;67064.44;;;6.93;100.00
5988;BME280;3021;51.000;6.980;2023-02-05T05:47:17;67074.47;;;6.97;100.00
5988;BME280;3021;51.000;6.980;2023-02-05T05:49:42;67074.06;;;6.99;100.00
5988;BME280;3021;51.000;6.980;2023-02-05T05:52:07;67078.69;;;7.03;100.00
5988;BME280;3021;51.000;6.980;2023-02-05T05:54:33;67082.53;;;7.04;100.00
5988;BME280;3021;51.000;6.980;2023-02-05T05:56:58;67079.81;;;7.04;100.00
5988;BME280;3021;51.000;6.980;2023-02-05T05:59:23;67084.88;;;7.06;100.00
5988;BME280;3021;51.000;6.980;2023-02-05T06:01:49;67087.03;;;7.06;100.00
5988;BME280;3021;51.000;6.980;2023-02-05T06:04:14;67085.03;;;7.09;100.00
5988;BME280;3021;51.000;6.980;2023-02-05T06:06:39;67085.03;;;7.09;100.00
5988;BME280;3021;51.000;6.980;2023-02-05T06:09:06;67089.03;;;7.13;100.00
5988;BME280;3021;51.000;6.980;2023-02-05T06:11:31;67087.91;;;7.12;100.00
5988;BME280;3021;51.000;6.980;2023-02-05T06:13:56;67098.09;;;7.18;100.00
5988;BME280;3021;51.000;6.980;2023-02-05T06:16:22;67099.44;;;7.22;100.00
5988;BME280;3021;51.000;6.980;2023-02-05T06:18:47;67098.28;;;7.21;100.00
5988;BME280;3021;51.000;6.980;2023-02-05T06:21:13;67098.28;;;7.21;100.00
5988;BME280;3021;51.000;6.980;2023-02-05T06:23:38;67103.88;;;7.23;100.00
5988;BME280;3021;51.000;6.980;2023-02-05T06:26:03;67100.56;;;7.23;100.00
5988;BME280;3021;51.000;6.980;2023-02-05T06:28:29;67106.75;;;7.26;100.00
5988;BME280;3021;51.000;6.980;2023-02-05T06:30:54;67106.75;;;7.26;100.00
5988;BME280;3021;51.000;6.980;2023-02-05T06:33:20;67106.75;;;7.26;100.00
5988;BME280;3021;51.000;6.980;2023-02-05T06:35:45;67109.78;;;7.31;100.00
5988;BME280;3021;51.000;6.980;2023-02-05T06:38:10;67107.66;;;7.32;100.00
5988;BME280;3021;51.000;6.980;2023-02-05T06:40:36;67108.63;;;7.30;100.00
5988;BME280;3021;51.000;6.980;2023-02-05T06:43:01;67101.16;;;7.23;100.00
5988;BME280;3021;51.000;6.980;2023-02-05T06:45:27;67106.34;;;7.28;100.00
5988;BME280;3021;51.000;6.980;2023-02-05T06:47:52;67107.50;;;7.29;100.00
5988;BME280;3021;51.000;6.980;2023-02-05T06:50:21;67116.56;;;7.35;100.00
5988;BME280;3021;51.000;6.980;2023-02-05T06:52:46;67115.13;;;7.38;100.00
5988;BME280;3021;51.000;6.980;2023-02-05T06:55:12;67117.44;;;7.40;100.00
5988;BME280;3021;51.000;6.980;2023-02-05T06:57:37;67122.06;;;7.44;100.00
5988;BME280;3021;51.000;6.980;2023-02-05T07:00:04;67129.81;;;7.47;100.00
5988;BME280;3021;51.000;6.980;2023-02-05T07:02:30;67128.09;;;7.45;100.00
5988;BME280;3021;51.000;6.980;2023-02-05T07:04:56;67125.50;;;7.48;100.00
5988;BME280;3021;51.000;6.980;2023-02-05T07:07:21;67126.06;;;7.48;100.00
5988;BME280;3021;51.000;6.980;2023-02-05T07:09:47;67128.81;;;7.48;100.00
5988;BME280;3021;51.000;6.980;2023-02-05T07:12:12;67135.72;;;7.54;100.00
5988;BME280;3021;51.000;6.980;2023-02-05T07:14:38;67147.66;;;7.63;100.00
5988;BME280;3021;51.000;6.980;2023-02-05T07:17:04;67140.16;;;7.56;100.00
5988;BME280;3021;51.000;6.980;2023-02-05T07:19:29;67140.75;;;7.56;100.00
5988;BME280;3021;51.000;6.980;2023-02-05T07:21:54;67136.88;;;7.55;100.00
5988;BME280;3021;51.000;6.980;2023-02-05T07:24:20;67132.25;;;7.51;100.00
5988;BME280;3021;51.000;6.980;2023-02-05T07:26:45;67131.84;;;7.53;100.00
5988;BME280;3021;51.000;6.980;2023-02-05T07:29:10;67132.84;;;7.52;100.00
5988;BME280;3021;51.000;6.980;2023-02-05T07:31:36;67140.91;;;7.59;100.00
5988;BME280;3021;51.000;6.980;2023-02-05T07:34:02;67140.47;;;7.61;100.00
5988;BME280;3021;51.000;6.980;2023-02-05T07:36:28;67137.16;;;7.51;100.00
5988;BME280;3021;51.000;6.980;2023-02-05T07:38:53;67132.25;;;7.51;100.00
5988;BME280;3021;51.000;6.980;2023-02-05T07:41:18;67140.91;;;7.59;100.00
5988;BME280;3021;51.000;6.980;2023-02-05T07:43:44;67149.56;;;7.67;100.00
5988;BME280;3021;51.000;6.980;2023-02-05T07:46:12;67134.56;;;7.53;100.00
5988;BME280;3021;51.000;6.980;2023-02-05T07:48:38;67135.16;;;7.54;100.00
5988;BME280;3021;51.000;6.980;2023-02-05T07:51:04;67136.16;;;7.52;100.00
5988;BME280;3021;51.000;6.980;2023-02-05T07:53:30;67129.81;;;7.47;100.00
5988;BME280;3021;51.000;6.980;2023-02-05T07:55:55;67126.50;;;7.46;100.00
5988;BME280;3021;51.000;6.980;2023-02-05T07:58:21;67132.25;;;7.51;100.00
5988;BME280;3021;51.000;6.980;2023-02-05T08:00:46;67130.53;;;7.50;100.00
5988;BME280;3021;51.000;6.980;2023-02-05T08:03:12;67129.97;;;7.49;100.00
5988;BME280;3021;51.000;6.980;2023-02-05T08:05:38;67146.50;;;7.61;100.00
5988;BME280;3021;51.000;6.980;2023-02-05T08:08:04;67142.06;;;7.60;100.00
5988;BME280;3021;51.000;6.980;2023-02-05T08:10:30;67139.59;;;7.55;100.00
5988;BME280;3021;51.000;6.980;2023-02-05T08:12:56;67138.19;;;7.59;100.00
5988;BME280;3021;51.000;6.980;2023-02-05T08:15:24;67142.06;;;7.60;100.00
5988;BME280;3021;51.000;6.980;2023-02-05T08:17:50;67140.16;;;7.56;100.00
5988;BME280;3021;51.000;6.980;2023-02-05T08:20:16;67141.91;;;7.57;100.00
5988;BME280;3021;51.000;6.980;2023-02-05T08:22:44;67138.59;;;7.57;100.00
5988;BME280;3021;51.000;6.980;2023-02-05T08:25:12;67141.91;;;7.57;100.00
5988;BME280;3021;51.000;6.980;2023-02-05T08:27:40;67149.41;;;7.64;100.00
5988;BME280;3021;51.000;6.980;2023-02-05T08:30:08;67147.81;;;7.65;100.00
5988;BME280;3021;51.000;6.980;2023-02-05T08:32:34;67139.59;;;7.55;100.00
5988;BME280;3021;51.000;6.980;2023-02-05T08:35:00;67125.34;;;7.45;100.00
5988;BME280;3021;51.000;6.980;2023-02-05T08:37:26;67136.72;;;7.53;100.00
5988;BME280;3021;51.000;6.980;2023-02-05T08:39:51;67142.81;;;7.63;100.00
5988;BME280;3021;51.000;6.980;2023-02-05T08:42:16;67128.66;;;7.46;100.00
5988;BME280;3021;51.000;6.980;2023-02-05T08:44:43;67127.06;;;7.47;100.00
5988;BME280;3021;51.000;6.980;2023-02-05T08:47:08;67117.84;;;7.38;100.00
5988;BME280;3021;51.000;6.980;2023-02-05T08:49:33;67132.25;;;7.51;100.00
5988;BME280;3021;51.000;6.980;2023-02-05T08:51:59;67120.16;;;7.40;100.00
5988;BME280;3021;51.000;6.980;2023-02-05T08:54:24;67117.28;;;7.38;100.00
5988;BME280;3021;51.000;6.980;2023-02-05T08:56:50;67122.91;;;7.40;100.00
5988;BME280;3021;51.000;6.980;2023-02-05T08:59:16;67125.91;;;7.46;100.00
5988;BME280;3021;51.000;6.980;2023-02-05T09:01:43;67132.09;;;7.49;100.00
5988;BME280;3021;51.000;6.980;2023-02-05T09:04:16;67144.06;;;7.57;100.00
5988;BME280;3021;51.000;6.980;2023-02-05T09:06:42;67132.25;;;7.51;100.00
5988;BME280;3021;51.000;6.980;2023-02-05T09:09:08;67117.84;;;7.38;100.00
5988;BME280;3021;51.000;6.980;2023-02-05T09:11:34;67125.75;;;7.43;100.00
5988;BME280;3021;51.000;6.980;2023-02-05T09:13:59;67116.72;;;7.37;100.00
5988;BME280;3021;51.000;6.980;2023-02-05T09:16:25;67127.66;;;7.47;100.00
5988;BME280;3021;51.000;6.980;2023-02-05T09:18:53;67102.44;;;7.27;100.00
5988;BME280;3021;51.000;6.980;2023-02-05T09:21:19;67098.84;;;7.21;100.00
5988;BME280;3021;51.000;6.980;2023-02-05T09:23:44;67090.03;;;7.11;100.00
5988;BME280;3021;51.000;6.980;2023-02-05T09:26:09;67090.63;;;7.12;100.00
5988;BME280;3021;51.000;6.980;2023-02-05T09:28:35;67088.31;;;7.09;100.00
5988;BME280;3021;51.000;6.980;2023-02-05T09:31:10;67099.44;;;7.22;100.00
5988;BME280;3021;51.000;6.980;2023-02-05T09:33:36;67110.50;;;7.34;100.00
5988;BME280;3021;51.000;6.980;2023-02-05T09:36:08;67106.50;;;7.31;100.00
5988;BME280;3021;51.000;6.980;2023-02-05T09:38:35;67090.19;;;7.14;100.00
5988;BME280;3021;51.000;6.980;2023-02-05T09:41:05;67082.88;;;7.09;100.00
5988;BME280;3021;51.000;6.980;2023-02-05T09:46:38;67081.56;;;7.06;100.00
5988;BME280;3021;51.000;6.980;2023-02-05T09:49:18;67075.66;;;6.98;100.00
5988;BME280;3021;51.000;6.980;2023-02-05T09:51:50;67073.47;;;6.99;100.00
5988;BME280;3021;51.000;6.980;2023-02-05T09:54:30;67082.88;;;7.09;100.00
5988;BME280;3021;51.000;6.980;2023-02-05T09:57:09;67090.19;;;7.14;100.00
5988;BME280;3021;51.000;6.980;2023-02-05T09:59:36;67101.56;;;7.21;100.00
5988;BME280;3021;51.000;6.980;2023-02-05T10:02:22;67106.50;;;7.31;100.00
5988;BME280;3021;51.000;6.980;2023-02-05T10:04:51;67088.03;;;7.14;100.00
5988;BME280;3021;51.000;6.980;2023-02-05T10:10:17;67085.44;;;7.07;100.00
5988;BME280;3021;51.000;6.980;2023-02-05T10:13:11;67082.72;;;7.07;100.00
5988;BME280;3021;51.000;6.980;2023-02-05T10:15:55;67099.44;;;7.22;100.00
5988;BME280;3021;51.000;6.980;2023-02-05T10:23:58;67081.72;;;7.08;100.00
5988;BME280;3021;51.000;6.980;2023-02-05T10:29:33;67115.13;;;7.38;100.00
5988;BME280;3021;51.000;6.980;2023-02-05T10:32:15;67107.66;;;7.32;100.00
5988;BME280;3021;51.000;6.980;2023-02-05T10:34:55;67095.38;;;7.18;100.00
5988;BME280;3021;51.000;6.980;2023-02-05T10:40:18;67103.59;;;7.28;100.00
5988;BME280;3021;51.000;6.980;2023-02-05T10:42:50;67113.84;;;7.35;100.00
5988;BME280;3021;51.000;6.980;2023-02-05T10:45:22;67098.84;;;7.21;100.00
5988;BME280;3021;51.000;6.980;2023-02-05T10:52:57;67104.03;;;7.26;100.00
5988;BME280;3021;51.000;6.980;2023-02-05T10:55:22;67100.00;;;7.22;100.00
5988;BME280;3021;51.000;6.980;2023-02-05T10:57:47;67120.59;;;7.38;100.00
5988;BME280;3021;51.000;6.980;2023-02-05T11:00:17;67121.31;;;7.41;100.00
5988;BME280;3021;51.000;6.980;2023-02-05T11:02:47;67120.00;;;7.38;100.00
5988;BME280;3021;51.000;6.980;2023-02-05T11:05:19;67129.97;;;7.49;100.00
5988;BME280;3021;51.000;6.980;2023-02-05T11:07:47;67126.66;;;7.49;100.00
5988;BME280;3021;51.000;6.980;2023-02-05T11:10:19;67112.81;;;7.36;100.00
5988;BME280;3021;51.000;6.980;2023-02-05T11:12:47;67115.13;;;7.38;100.00
5988;BME280;3021;51.000;6.980;2023-02-05T11:15:20;67138.19;;;7.59;100.00
5988;BME280;3021;51.000;6.980;2023-02-05T11:17:50;67147.66;;;7.63;100.00
5988;BME280;3021;51.000;6.980;2023-02-05T11:22:41;67139.75;;;7.58;100.00
5988;BME280;3021;51.000;6.980;2023-02-05T11:25:17;67148.41;;;7.66;100.00
5988;BME280;3021;51.000;6.980;2023-02-05T11:27:51;67153.00;;;7.70;100.00
5988;BME280;3021;51.000;6.980;2023-02-05T11:33:17;67123.47;;;7.41;100.00
5988;BME280;3021;51.000;6.980;2023-02-05T11:38:47;67125.75;;;7.43;100.00
5988;BME280;3021;51.000;6.980;2023-02-05T11:41:35;67120.16;;;7.40;100.00
5988;BME280;3021;51.000;6.980;2023-02-05T11:44:23;67138.44;;;7.54;100.00
5988;BME280;3021;51.000;6.980;2023-02-05T11:46:50;67142.50;;;7.58;100.00
5988;BME280;3021;51.000;6.980;2023-02-05T11:49:36;67132.41;;;7.54;100.00
5988;BME280;3021;51.000;6.980;2023-02-05T11:52:15;67128.41;;;7.50;100.00
5988;BME280;3021;51.000;6.980;2023-02-05T11:54:47;67136.16;;;7.52;100.00
5988;BME280;3021;51.000;6.980;2023-02-05T12:02:38;67135.56;;;7.52;100.00
5988;BME280;3021;51.000;6.980;2023-02-05T12:05:25;67139.03;;;7.55;100.00
5988;BME280;3021;51.000;6.980;2023-02-05T12:07:57;67130.53;;;7.50;100.00
5988;BME280;3021;51.000;6.980;2023-02-05T12:26:43;67115.72;;;7.39;100.00
5988;BME280;3021;51.000;6.980;2023-02-05T12:32:00;67141.50;;;7.59;100.00
5988;BME280;3021;51.000;6.980;2023-02-05T12:37:25;67125.50;;;7.48;100.00
5988;BME280;3021;51.000;6.980;2023-02-05T12:42:25;67113.25;;;7.34;100.00
5988;BME280;3021;51.000;6.980;2023-02-05T12:45:14;67131.13;;;7.50;100.00
5988;BME280;3021;51.000;6.980;2023-02-05T12:47:52;67130.38;;;7.47;100.00
5988;BME280;3021;51.000;6.980;2023-02-05T12:53:38;67113.41;;;7.37;100.00
5988;BME280;3021;51.000;6.980;2023-02-05T12:56:37;67128.25;;;7.48;100.00
5988;BME280;3021;51.000;6.980;2023-02-05T12:59:12;67121.91;;;7.42;100.00
5988;BME280;3021;51.000;6.980;2023-02-05T13:01:42;67131.53;;;7.48;100.00
5988;BME280;3021;51.000;6.980;2023-02-05T13:04:32;67119.00;;;7.39;100.00
5988;BME280;3021;51.000;6.980;2023-02-05T13:07:25;67119.00;;;7.39;100.00
5988;BME280;3021;51.000;6.980;2023-02-05T13:10:05;67124.19;;;7.44;100.00
5988;BME280;3021;51.000;6.980;2023-02-05T13:12:40;67117.84;;;7.38;100.00
5988;BME280;3021;51.000;6.980;2023-02-05T13:15:29;67117.13;;;7.35;100.00
5988;BME280;3021;51.000;6.980;2023-02-05T13:18:14;67113.84;;;7.35;100.00
5988;BME280;3021;51.000;6.980;2023-02-05T13:20:49;67117.44;;;7.40;100.00
5988;BME280;3021;51.000;6.980;2023-02-05T13:23:36;67126.50;;;7.46;100.00
5988;BME280;3021;51.000;6.980;2023-02-05T13:26:29;67134.00;;;7.53;100.00
5988;BME280;3021;51.000;6.980;2023-02-05T13:29:16;67122.47;;;7.42;100.00
5988;BME280;3021;51.000;6.980;2023-02-05T13:31:47;67113.25;;;7.34;100.00
5988;BME280;3021;51.000;6.980;2023-02-05T13:34:16;67107.50;;;7.29;100.00
5988;BME280;3021;51.000;6.980;2023-02-05T13:36:56;67101.72;;;7.24;100.00
5988;BME280;3021;51.000;6.980;2023-02-05T13:39:41;67090.78;;;7.14;100.00
5988;BME280;3021;51.000;6.980;2023-02-05T13:42:23;67088.47;;;7.12;100.00
5988;BME280;3021;51.000;6.980;2023-02-05T13:45:25;67091.19;;;7.12;100.00
5988;BME280;3021;51.000;6.980;2023-02-05T13:59:29;67079.81;;;7.04;100.00
5988;BME280;3021;51.000;6.980;2023-02-05T14:01:59;67086.16;;;7.10;100.00
5988;BME280;3021;51.000;6.980;2023-02-05T14:07:03;67074.47;;;6.97;100.00
5988;BME280;3021;51.000;6.980;2023-02-05T14:09:40;67064.44;;;6.93;100.00
5988;BME280;3021;51.000;6.980;2023-02-05T14:12:19;67062.41;;;6.86;100.00
5988;BME280;3021;51.000;6.980;2023-02-05T14:27:59;67052.34;;;6.82;100.00
5988;BME280;3021;51.000;6.980;2023-02-05T14:30:50;67065.56;;;6.94;100.00
5988;BME280;3021;51.000;6.980;2023-02-05T14:33:40;67065.41;;;6.91;100.00
5988;BME280;3021;51.000;6.980;2023-02-05T14:41:24;67059.09;;;6.86;100.00
5988;BME280;3021;51.000;6.980;2023-02-05T14:43:55;67050.44;;;6.78;100.00
5988;BME280;3021;51.000;6.980;2023-02-05T14:48:55;67061.41;;;6.88;100.00
5988;BME280;3021;51.000;6.980;2023-02-05T14:54:00;67060.25;;;6.87;100.00
5988;BME280;3021;51.000;6.980;2023-02-05T14:56:39;67062.69;;;6.91;100.00
5988;BME280;3021;51.000;6.980;2023-02-05T14:59:38;67063.69;;;6.90;100.00
5988;BME280;3021;51.000;6.980;2023-02-05T15:05:15;67048.72;;;6.77;100.00
5988;BME280;3021;51.000;6.980;2023-02-05T15:07:43;67049.16;;;6.74;100.00
5988;BME280;3021;51.000;6.980;2023-02-05T15:10:18;67046.44;;;6.74;100.00
5988;BME280;3021;51.000;6.980;2023-02-05T15:13:02;67044.56;;;6.70;100.00
5988;BME280;3021;51.000;6.980;2023-02-05T15:15:34;67037.94;;;6.69;100.00
5988;BME280;3021;51.000;6.980;2023-02-05T15:18:27;67038.94;;;6.68;100.00
5988;BME280;3021;51.000;6.980;2023-02-05T15:20:54;67053.91;;;6.81;100.00
5988;BME280;3021;51.000;6.980;2023-02-05T15:23:36;67059.09;;;6.86;100.00
5988;BME280;3021;51.000;6.980;2023-02-05T15:26:06;67041.41;;;6.72;100.00
5988;BME280;3021;51.000;6.980;2023-02-05T15:29:02;67051.63;;;6.79;100.00
5988;BME280;3021;51.000;6.980;2023-02-05T15:31:39;67056.63;;;6.81;100.00
5988;BME280;3021;51.000;6.980;2023-02-05T15:36:59;67047.72;;;6.78;100.00
5988;BME280;3021;51.000;6.980;2023-02-05T15:39:42;67059.09;;;6.86;100.00
5988;BME280;3021;51.000;6.980;2023-02-05T15:42:14;67060.09;;;6.84;100.00
5988;BME280;3021;51.000;6.980;2023-02-05T15:44:40;67056.63;;;6.81;100.00
5988;BME280;3021;51.000;6.980;2023-02-05T15:47:11;67065.28;;;6.89;100.00
5988;BME280;3021;51.000;6.980;2023-02-05T15:49:42;67063.56;;;6.87;100.00